Time;durP1;ratioP1;P1;durP2;ratioP2;P2;SDS_P1;SDS_P2;PMS_P1;PMS_P2;Temp;Humidity;BMP_temperature;BMP_pressure;BME280_temperature;BME280_humidity;BME280_pressure;Samples;Min_cycle;Max_cycle;Signal;HPM_P1;HPM_P2
2022/04/29 00:00:53;;;;;;;16.83;11.07;;;;;;;5.14;92.60;99871.88;4221010;27;20109;-73
2022/04/29 00:02:54;;;;;;;16.55;10.88;;;;;;;5.11;92.67;99858.75;4221878;28;20051;-73
2022/04/29 00:04:54;;;;;;;16.63;10.32;;;;;;;5.04;93.09;99862.72;4221303;28;20036;-73
2022/04/29 00:06:54;;;;;;;18.75;11.15;;;;;;;5.05;92.24;99858.09;4221639;27;20323;-73
2022/04/29 00:08:55;;;;;;;18.67;10.85;;;;;;;4.98;92.93;99861.25;4221715;28;20066;-73
2022/04/29 00:10:55;;;;;;;16.88;9.80;;;;;;;4.96;92.49;99863.44;4223953;27;20101;-73
2022/04/29 00:12:55;;;;;;;17.58;10.95;;;;;;;5.00;92.63;99860.94;4230552;27;20067;-73
2022/04/29 00:14:56;;;;;;;16.27;10.15;;;;;;;4.96;91.58;99854.41;4228975;27;20405;-73
2022/04/29 00:29:09;;;;;;;16.90;10.77;;;;;;;4.75;94.76;99843.09;4224479;27;20350;-73
2022/04/29 00:31:09;;;;;;;17.25;10.45;;;;;;;4.84;93.90;99845.91;4220216;28;20085;-73
2022/04/29 00:33:10;;;;;;;16.23;10.50;;;;;;;4.79;93.01;99844.06;4220891;27;20103;-73
2022/04/29 00:35:10;;;;;;;16.17;10.25;;;;;;;4.78;91.71;99847.94;4220496;28;20100;-73
2022/04/29 00:37:10;;;;;;;14.57;9.88;;;;;;;4.81;90.86;99849.28;4221879;27;20470;-73
2022/04/29 00:39:11;;;;;;;18.25;10.10;;;;;;;4.77;90.91;99838.09;4221360;27;20142;-73
2022/04/29 00:41:16;;;;;;;14.85;9.98;;;;;;;4.77;91.01;99838.91;4220647;28;20067;-73
2022/04/29 00:43:16;;;;;;;13.55;9.63;;;;;;;4.81;88.18;99833.63;4220550;28;20425;-73
2022/04/29 00:45:19;;;;;;;14.65;9.82;;;;;;;4.82;88.97;99837.19;4220792;28;20043;-73
2022/04/29 00:47:21;;;;;;;17.02;11.13;;;;;;;4.78;89.07;99836.97;4220242;28;20212;-73
2022/04/29 00:49:21;;;;;;;20.33;10.05;;;;;;;4.68;88.91;99839.94;4220854;27;20055;-73
2022/04/29 00:51:22;;;;;;;18.83;11.57;;;;;;;4.63;88.57;99834.53;4220494;28;20051;-73
2022/04/29 00:53:23;;;;;;;17.25;10.52;;;;;;;4.53;89.45;99830.09;4220657;27;20096;-73
2022/04/29 00:55:23;;;;;;;18.33;10.52;;;;;;;4.43;90.78;99841.25;4221052;28;20043;-73
2022/04/29 00:57:36;;;;;;;15.77;10.30;;;;;;;4.37;90.32;99835.06;4219948;27;20258;-73
2022/04/29 01:00:01;;;;;;;17.58;10.80;;;;;;;4.34;90.85;99835.69;4221093;28;20043;-73
2022/04/29 01:02:03;;;;;;;17.48;11.15;;;;;;;4.43;89.79;99833.84;4218935;28;20059;-73
2022/04/29 01:04:04;;;;;;;20.00;11.15;;;;;;;4.40;89.42;99823.50;4223453;27;20390;-73
2022/04/29 01:06:04;;;;;;;18.00;10.73;;;;;;;4.40;89.30;99826.25;4228826;27;20034;-73
2022/04/29 01:08:06;;;;;;;19.42;11.60;;;;;;;4.33;90.45;99822.28;4219811;28;20517;-73
2022/04/29 01:10:08;;;;;;;17.02;11.52;;;;;;;4.22;90.81;99818.94;4226459;27;20383;-73
2022/04/29 01:12:08;;;;;;;16.58;11.30;;;;;;;4.13;91.20;99824.28;4227250;27;20027;-73
2022/04/29 01:14:09;;;;;;;18.45;10.90;;;;;;;4.05;91.87;99818.69;4220265;28;20056;-73
2022/04/29 01:16:09;;;;;;;17.67;11.30;;;;;;;3.94;92.51;99818.06;4220503;27;20031;-73
2022/04/29 01:18:10;;;;;;;16.85;11.45;;;;;;;3.88;93.16;99822.81;4221403;27;20483;-73
2022/04/29 01:20:12;;;;;;;17.15;12.10;;;;;;;3.86;93.75;99825.06;4219630;28;20507;-73
2022/04/29 01:22:12;;;;;;;;;;;;;;;3.83;93.61;99822.94;4223896;27;20122;-73
2022/04/29 01:24:13;;;;;;;16.00;10.35;;;;;;;3.83;93.21;99819.38;4223632;27;20303;-73
2022/04/29 01:29:10;;;;;;;17.70;10.60;;;;;;;3.73;93.25;99820.38;4219265;28;20509;-73
2022/04/29 01:31:15;;;;;;;17.27;11.57;;;;;;;3.68;94.32;99825.94;4231183;27;20153;-73
2022/04/29 01:33:17;;;;;;;18.85;11.38;;;;;;;3.69;92.68;99824.00;4220254;28;20054;-73
2022/04/29 01:35:18;;;;;;;17.50;11.15;;;;;;;3.66;93.63;99812.53;4224842;27;20041;-73
2022/04/29 01:37:18;;;;;;;16.92;11.00;;;;;;;3.65;93.02;99826.53;4219757;28;20463;-73
2022/04/29 01:39:18;;;;;;;16.75;11.13;;;;;;;3.61;92.80;99809.88;4219757;28;20035;-73
2022/04/29 01:41:19;;;;;;;17.25;11.07;;;;;;;3.58;93.40;99820.63;4220112;27;20118;-73
2022/04/29 01:43:19;;;;;;;17.75;11.88;;;;;;;3.56;93.44;99815.47;4219738;28;20134;-73
2022/04/29 01:45:19;;;;;;;19.48;11.27;;;;;;;3.51;94.29;99810.06;4225217;27;20051;-73
2022/04/29 01:47:20;;;;;;;18.92;10.90;;;;;;;3.49;93.84;99815.03;4219033;28;20147;-73
2022/04/29 01:49:20;;;;;;;17.30;11.32;;;;;;;3.50;93.29;99821.31;4220284;28;20266;-73
2022/04/29 01:51:21;;;;;;;18.35;10.65;;;;;;;3.47;93.61;99805.47;4219780;28;20043;-73
2022/04/29 01:53:21;;;;;;;16.73;11.25;;;;;;;3.46;94.24;99815.59;4218456;28;20048;-73
2022/04/29 01:55:22;;;;;;;19.52;11.32;;;;;;;3.46;93.83;99807.38;4219602;28;20044;-73
2022/04/29 01:57:22;;;;;;;16.73;10.93;;;;;;;3.44;93.52;99817.03;4225155;27;20043;-73
2022/04/29 01:59:22;;;;;;;16.23;10.05;;;;;;;3.43;92.08;99805.25;4220341;27;20058;-73
2022/04/29 02:01:23;;;;;;;15.93;9.60;;;;;;;3.37;92.29;99800.97;4219318;27;20071;-73
2022/04/29 02:03:23;;;;;;;18.40;10.02;;;;;;;3.35;93.26;99803.22;4223232;27;20048;-73
2022/04/29 02:05:24;;;;;;;19.15;11.77;;;;;;;3.30;93.58;99806.00;4219697;28;20040;-73
2022/04/29 02:07:24;;;;;;;17.55;10.50;;;;;;;3.24;94.73;99809.97;4219180;28;20035;-73
2022/04/29 02:09:25;;;;;;;19.63;10.88;;;;;;;3.20;94.82;99804.25;4219773;28;20487;-73
2022/04/29 02:11:25;;;;;;;15.43;10.15;;;;;;;3.20;94.25;99809.72;4228092;27;20209;-73
2022/04/29 02:13:26;;;;;;;15.63;11.02;;;;;;;3.14;94.00;99810.09;4219834;28;20067;-73
2022/04/29 02:15:26;;;;;;;17.80;10.48;;;;;;;3.16;95.96;99810.63;4222971;28;20043;-73
2022/04/29 02:17:26;;;;;;;18.02;11.25;;;;;;;3.10;95.47;99797.03;4228477;27;20416;-73
2022/04/29 02:19:28;;;;;;;15.90;9.88;;;;;;;3.10;96.39;99794.28;4219760;28;20392;-73
2022/04/29 02:21:28;;;;;;;15.60;9.93;;;;;;;3.06;95.66;99797.91;4219635;28;20044;-73
2022/04/29 02:23:29;;;;;;;18.60;11.02;;;;;;;3.10;96.49;99794.28;4224173;27;20757;-73
2022/04/29 02:25:29;;;;;;;20.15;11.10;;;;;;;3.14;93.79;99793.69;4219503;28;20039;-73
2022/04/29 02:27:29;;;;;;;18.92;10.90;;;;;;;3.15;94.38;99787.13;4218077;28;20050;-73
2022/04/29 02:29:30;;;;;;;16.35;10.27;;;;;;;3.13;93.13;99790.13;4219386;28;20877;-73
2022/04/29 02:31:30;;;;;;;18.20;10.45;;;;;;;3.11;93.63;99789.63;4219485;27;20044;-73
2022/04/29 02:33:32;;;;;;;14.70;10.50;;;;;;;3.07;93.46;99791.34;4219314;28;20040;-73
2022/04/29 02:35:32;;;;;;;19.23;10.90;;;;;;;3.04;95.07;99776.31;4219411;28;20062;-73
2022/04/29 02:37:33;;;;;;;16.08;9.40;;;;;;;3.07;92.54;99780.41;4219233;28;20644;-73
2022/04/29 02:39:33;;;;;;;17.33;10.82;;;;;;;3.02;94.03;99775.00;4219266;28;20511;-73
2022/04/29 02:41:33;;;;;;;18.20;10.10;;;;;;;3.05;91.90;99777.94;4223071;28;20035;-73
2022/04/29 02:43:34;;;;;;;17.13;10.55;;;;;;;3.01;95.00;99776.13;4219885;27;20054;-73
2022/04/29 02:45:35;;;;;;;17.50;11.05;;;;;;;3.01;93.31;99776.13;4219242;28;20085;-73
2022/04/29 02:47:35;;;;;;;18.50;10.50;;;;;;;3.04;93.47;99776.31;4218597;28;20047;-73
2022/04/29 02:49:43;;;;;;;16.05;10.10;;;;;;;3.02;93.01;99770.34;4219875;28;20421;-73
2022/04/29 02:51:43;;;;;;;17.88;10.85;;;;;;;2.97;94.03;99780.53;4225929;28;20051;-73
2022/04/29 02:53:43;;;;;;;16.83;10.88;;;;;;;2.93;93.89;99777.59;4219354;28;20043;-72
2022/04/29 02:55:44;;;;;;;18.55;10.55;;;;;;;2.94;93.14;99765.53;4219070;28;20455;-73
2022/04/29 02:57:44;;;;;;;18.63;11.05;;;;;;;3.02;92.96;99767.59;4218342;28;20518;-73
2022/04/29 02:59:44;;;;;;;22.88;13.25;;;;;;;2.99;92.99;99764.66;4219423;27;20046;-73
2022/04/29 03:01:45;;;;;;;16.83;11.07;;;;;;;3.04;93.93;99762.66;4218565;28;20089;-73
2022/04/29 03:03:46;;;;;;;20.50;12.45;;;;;;;3.08;94.14;99768.34;4220642;28;20878;-73
2022/04/29 03:05:46;;;;;;;21.15;11.75;;;;;;;3.14;92.85;99769.88;4222464;28;20194;-73
2022/04/29 03:07:47;;;;;;;18.20;11.27;;;;;;;3.15;93.31;99767.97;4221714;28;20513;-72
2022/04/29 03:09:48;;;;;;;19.05;12.68;;;;;;;3.12;92.90;99771.28;4223389;27;20457;-73
2022/04/29 03:11:48;;;;;;;20.20;11.75;;;;;;;3.07;94.18;99770.28;4226141;27;20078;-73
2022/04/29 03:13:49;;;;;;;18.65;11.77;;;;;;;3.00;95.99;99771.75;4221953;28;20154;-73
2022/04/29 03:15:49;;;;;;;23.45;12.68;;;;;;;2.88;97.64;99764.00;4223530;27;20047;-73
2022/04/29 03:18:34;;;;;;;19.65;12.70;;;;;;;2.81;98.24;99772.59;4225383;27;20422;-73
2022/04/29 03:20:11;;;;;;;17.40;11.15;;;;;;;2.71;97.99;99761.78;4207119;28;20100;-73
2022/04/29 03:22:11;;;;;;;17.40;10.60;;;;;;;2.59;98.69;99772.34;4222147;27;20114;-73
2022/04/29 03:24:11;;;;;;;18.80;11.07;;;;;;;2.48;99.63;99771.66;4222148;28;20020;-73
2022/04/29 03:26:11;;;;;;;17.83;11.00;;;;;;;2.44;100.00;99776.06;4229080;27;20050;-73
2022/04/29 03:28:12;;;;;;;14.13;10.43;;;;;;;2.40;100.00;99775.03;4221058;27;20045;-73
2022/04/29 03:30:13;;;;;;;21.52;12.40;;;;;;;2.36;100.00;99779.44;4222856;27;20346;-73
2022/04/29 03:32:13;;;;;;;15.18;10.27;;;;;;;2.33;100.00;99780.06;4224073;27;20428;-73
2022/04/29 03:34:14;;;;;;;18.30;11.10;;;;;;;2.27;100.00;99777.66;4222250;27;20032;-73
2022/04/29 03:36:17;;;;;;;17.05;11.10;;;;;;;2.23;100.00;99767.34;4228560;27;20101;-73
2022/04/29 03:38:17;;;;;;;16.20;10.52;;;;;;;2.24;100.00;99773.59;4227141;27;20520;-73
2022/04/29 03:40:23;;;;;;;16.35;10.73;;;;;;;2.23;100.00;99769.22;4225091;27;20248;-73
2022/04/29 03:42:23;;;;;;;18.08;10.77;;;;;;;2.27;98.94;99767.56;4221300;27;20051;-73
2022/04/29 03:44:23;;;;;;;17.08;10.38;;;;;;;2.24;98.51;99765.41;4221656;27;20043;-73
2022/04/29 03:46:24;;;;;;;15.20;10.43;;;;;;;2.25;98.52;99767.84;4221846;27;20031;-73
2022/04/29 03:48:24;;;;;;;18.58;10.80;;;;;;;2.24;98.45;99759.94;4228123;27;20218;-73
2022/04/29 03:50:25;;;;;;;16.52;10.55;;;;;;;2.23;96.83;99761.03;4223030;27;20472;-73
2022/04/29 03:52:25;;;;;;;17.67;10.55;;;;;;;2.24;97.65;99765.41;4221910;28;20071;-73
2022/04/29 03:54:26;;;;;;;17.85;10.38;;;;;;;2.27;98.06;99766.75;4221558;28;20059;-73
2022/04/29 03:56:26;;;;;;;16.45;10.70;;;;;;;2.29;97.22;99773.53;4221549;27;20043;-73
2022/04/29 03:58:26;;;;;;;17.30;10.20;;;;;;;2.34;97.84;99769.94;4220874;28;20039;-72
2022/04/29 04:00:32;;;;;;;24.40;11.57;;;;;;;2.36;98.49;99764.97;4221561;27;20119;-73
2022/04/29 04:02:33;;;;;;;24.13;13.38;;;;;;;2.38;98.30;99768.22;4221244;28;20399;-73
2022/04/29 04:04:33;;;;;;;21.45;12.35;;;;;;;2.37;99.14;99772.06;4227403;27;20039;-72
2022/04/29 04:06:52;;;;;;;20.73;12.32;;;;;;;2.37;99.63;99772.06;4226481;27;20046;-73
2022/04/29 04:08:52;;;;;;;23.85;12.27;;;;;;;2.40;98.56;99766.00;4226486;27;20055;-73
2022/04/29 04:10:53;;;;;;;21.25;11.77;;;;;;;2.60;98.74;99764.94;4228607;27;20347;-72
2022/04/29 04:12:53;;;;;;;18.98;11.65;;;;;;;2.64;97.00;99768.69;4222928;27;20047;-73
2022/04/29 04:14:53;;;;;;;20.02;11.07;;;;;;;2.68;95.79;99756.91;4220539;28;20044;-72
2022/04/29 04:16:54;;;;;;;21.15;11.90;;;;;;;2.76;94.82;99758.97;4220949;27;20512;-73
2022/04/29 04:18:54;;;;;;;18.77;10.68;;;;;;;2.75;96.67;99765.56;4222379;27;20032;-73
2022/04/29 04:20:54;;;;;;;20.10;13.55;;;;;;;2.69;97.31;99766.72;4225256;27;20051;-73
2022/04/29 04:22:54;;;;;;;22.13;12.23;;;;;;;2.70;96.23;99760.16;4223920;27;20126;-72
2022/04/29 04:24:58;;;;;;;18.92;11.35;;;;;;;2.75;94.81;99762.00;4220844;27;20040;-72
2022/04/29 04:26:58;;;;;;;18.92;10.80;;;;;;;2.85;93.49;99763.78;4220251;28;20468;-72
2022/04/29 04:28:59;;;;;;;17.63;11.45;;;;;;;2.82;93.30;99759.72;4220880;28;20111;-73
2022/04/29 04:30:59;;;;;;;16.52;11.27;;;;;;;2.89;93.57;99770.25;4221322;28;20129;-72
2022/04/29 04:32:59;;;;;;;20.80;11.00;;;;;;;2.91;93.17;99768.88;4220925;28;20036;-72
2022/04/29 04:35:00;;;;;;;17.60;10.85;;;;;;;2.90;94.50;99770.00;4221003;28;20344;-72
2022/04/29 04:37:00;;;;;;;15.02;10.00;;;;;;;2.94;93.73;99770.19;4231757;27;20515;-73
2022/04/29 04:39:00;;;;;;;19.70;11.00;;;;;;;2.92;93.73;99784.19;4226355;27;20055;-72
2022/04/29 04:41:01;;;;;;;18.88;10.20;;;;;;;2.87;95.09;99769.75;4220420;27;20459;-73
2022/04/29 04:43:01;;;;;;;16.27;10.18;;;;;;;2.86;94.68;99779.88;4224473;27;20243;-72
2022/04/29 04:45:03;;;;;;;18.80;11.30;;;;;;;2.78;95.44;99770.41;4224167;27;20572;-72
2022/04/29 04:47:05;;;;;;;18.17;11.77;;;;;;;2.76;96.91;99774.56;4219796;28;20062;-73
2022/04/29 04:49:05;;;;;;;16.73;10.75;;;;;;;2.74;96.53;99779.53;4227561;27;20036;-72
2022/04/29 04:51:06;;;;;;;19.63;10.98;;;;;;;2.69;96.53;99785.84;4221254;28;20062;-72
2022/04/29 04:53:06;;;;;;;17.13;11.35;;;;;;;2.66;97.42;99791.91;4219923;27;20880;-72
2022/04/29 04:55:07;;;;;;;19.95;11.57;;;;;;;2.64;98.47;99785.09;4161675;27;20055;-72
2022/04/29 04:57:08;;;;;;;19.60;11.43;;;;;;;2.70;96.70;99789.41;4227438;27;20171;-72
2022/04/29 04:59:08;;;;;;;19.67;11.32;;;;;;;2.71;96.56;99782.81;4224970;27;20536;-73
2022/04/29 05:01:08;;;;;;;18.23;11.48;;;;;;;2.67;97.32;99784.53;4220722;28;20040;-72
2022/04/29 05:03:09;;;;;;;21.30;13.52;;;;;;;2.64;99.11;99796.03;4221006;28;20042;-72
2022/04/29 05:05:10;;;;;;;21.63;12.57;;;;;;;2.67;99.85;99788.06;4221781;27;20615;-72
2022/04/29 05:07:10;;;;;;;24.27;12.45;;;;;;;2.66;99.96;99791.09;4223312;27;20062;-73
2022/04/29 05:09:11;;;;;;;22.17;12.95;;;;;;;2.62;100.00;99784.59;4222537;27;20078;-72
2022/04/29 05:11:11;;;;;;;20.92;12.57;;;;;;;2.65;100.00;99789.47;4220880;27;20051;-72
2022/04/29 05:13:12;;;;;;;19.88;12.30;;;;;;;2.73;99.46;99788.78;4231696;27;20129;-72
2022/04/29 05:15:16;;;;;;;22.95;12.00;;;;;;;2.86;97.97;99790.00;4222168;27;20082;-72
2022/04/29 05:17:17;;;;;;;22.40;13.13;;;;;;;2.91;96.70;99784.47;4218632;27;20412;-73
2022/04/29 05:19:17;;;;;;;18.70;11.70;;;;;;;2.92;96.71;99791.56;4220372;28;20039;-72
2022/04/29 05:21:17;;;;;;;18.40;11.93;;;;;;;2.98;97.26;99793.09;4220100;28;20445;-73
2022/04/29 05:23:18;;;;;;;17.35;11.55;;;;;;;3.00;96.36;99779.97;4226547;27;20493;-73
2022/04/29 05:25:18;;;;;;;17.38;12.77;;;;;;;3.04;96.30;99783.72;4220074;28;20325;-72
2022/04/29 05:27:19;;;;;;;23.60;13.30;;;;;;;3.09;96.46;99794.59;4217275;28;20048;-72
2022/04/29 05:29:19;;;;;;;17.55;11.60;;;;;;;3.18;95.37;99800.19;4222685;27;20059;-72
2022/04/29 05:31:19;;;;;;;21.65;12.32;;;;;;;3.25;94.30;99781.50;4218999;27;20050;-72
2022/04/29 05:33:20;;;;;;;17.52;11.80;;;;;;;3.34;93.95;99791.44;4222675;27;20070;-73
2022/04/29 05:35:21;;;;;;;20.02;12.70;;;;;;;3.44;94.13;99779.53;4219259;27;20386;-72
2022/04/29 05:37:21;;;;;;;23.00;13.55;;;;;;;3.55;94.12;99793.84;4225025;27;20115;-72
2022/04/29 05:44:00;;;;;;;23.25;13.20;;;;;;;4.00;92.80;99794.16;4219570;28;20528;-72
2022/04/29 05:46:00;;;;;;;19.48;12.55;;;;;;;4.14;92.24;99795.00;4222089;27;20122;-73
2022/04/29 05:48:01;;;;;;;19.52;12.90;;;;;;;4.27;92.61;99794.16;4227603;27;20036;-73
2022/04/29 05:50:01;;;;;;;20.17;13.55;;;;;;;4.33;93.91;99789.41;4219831;28;20228;-73
2022/04/29 05:52:03;;;;;;;20.88;12.40;;;;;;;4.40;94.54;99787.06;4223709;27;20418;-73
2022/04/29 05:54:04;;;;;;;22.00;13.43;;;;;;;4.45;95.07;99782.28;4219596;27;20506;-73
2022/04/29 05:56:04;;;;;;;21.52;15.00;;;;;;;4.51;97.20;99792.03;4219492;27;20032;-73
2022/04/29 05:58:04;;;;;;;20.45;12.38;;;;;;;4.53;94.96;99785.44;4219178;28;20101;-72
2022/04/29 06:00:06;;;;;;;20.17;12.00;;;;;;;4.57;95.59;99781.78;4220281;28;20066;-73
2022/04/29 06:02:06;;;;;;;19.67;12.15;;;;;;;4.65;97.09;99783.81;4219610;28;20031;-73
2022/04/29 06:04:07;;;;;;;25.67;14.05;;;;;;;4.73;96.19;99785.00;4219925;28;20031;-73
2022/04/29 06:06:07;;;;;;;29.23;14.45;;;;;;;4.79;97.15;99783.75;4219623;28;20508;-73
2022/04/29 06:08:07;;;;;;;23.30;12.98;;;;;;;4.86;95.03;99786.09;4218650;28;20074;-73
2022/04/29 06:10:08;;;;;;;20.02;13.65;;;;;;;4.90;96.01;99785.16;4220402;27;20028;-73
2022/04/29 06:12:09;;;;;;;20.65;13.32;;;;;;;4.94;96.69;99777.13;4219937;28;20181;-73
2022/04/29 06:14:09;;;;;;;20.45;13.25;;;;;;;4.95;97.26;99781.47;4219280;28;20050;-72
2022/04/29 06:16:10;;;;;;;27.30;14.70;;;;;;;5.04;96.25;99790.59;4219698;28;20102;-73
2022/04/29 06:18:10;;;;;;;24.30;13.30;;;;;;;5.09;94.36;99785.00;4218648;28;20031;-73
2022/04/29 06:20:11;;;;;;;20.83;13.73;;;;;;;5.17;94.71;99784.25;4218801;28;20471;-73
2022/04/29 06:22:12;;;;;;;20.05;12.98;;;;;;;5.24;96.39;99787.41;4219061;28;20044;-73
2022/04/29 06:24:12;;;;;;;23.33;14.45;;;;;;;5.33;96.37;99791.00;4226138;27;20123;-73
2022/04/29 06:26:12;;;;;;;22.20;13.90;;;;;;;5.42;97.29;99791.06;4222647;27;20041;-73
2022/04/29 06:28:14;;;;;;;22.58;14.38;;;;;;;5.54;97.03;99796.81;4219008;27;20088;-73
2022/04/29 06:30:15;;;;;;;23.65;14.65;;;;;;;5.67;97.39;99786.06;4222748;27;20110;-73
2022/04/29 06:32:15;;;;;;;22.02;14.73;;;;;;;5.77;97.03;99789.38;4220434;27;20059;-73
2022/04/29 06:34:16;;;;;;;20.42;13.63;;;;;;;5.91;97.03;99792.06;4220401;28;20031;-73
2022/04/29 06:36:16;;;;;;;24.55;15.32;;;;;;;6.05;95.98;99797.47;4218491;28;20031;-73
2022/04/29 06:38:16;;;;;;;21.10;14.70;;;;;;;6.20;95.58;99786.03;4219472;28;20198;-73
2022/04/29 06:40:18;;;;;;;28.45;15.30;;;;;;;6.35;95.99;99795.81;4222984;28;20127;-73
2022/04/29 06:42:18;;;;;;;22.60;14.88;;;;;;;6.47;94.66;99798.78;4225730;27;20465;-73
2022/04/29 06:44:18;;;;;;;25.25;15.32;;;;;;;6.60;93.66;99789.56;4229136;27;20061;-73
2022/04/29 06:46:19;;;;;;;22.17;14.77;;;;;;;6.74;92.26;99792.22;4224482;27;20065;-73
2022/04/29 06:48:19;;;;;;;20.50;13.25;;;;;;;6.89;88.13;99794.50;4221990;27;20033;-73
2022/04/29 06:50:19;;;;;;;21.55;14.15;;;;;;;6.99;89.55;99791.44;4235321;27;20382;-73
2022/04/29 06:52:20;;;;;;;23.15;14.90;;;;;;;7.10;90.09;99793.88;4231247;27;20030;-73
2022/04/29 06:54:20;;;;;;;24.58;14.93;;;;;;;7.18;91.26;99787.56;4229286;27;20103;-73
2022/04/29 06:56:20;;;;;;;23.13;15.18;;;;;;;7.21;91.32;99779.47;4223466;27;20047;-73
2022/04/29 06:58:21;;;;;;;23.70;15.80;;;;;;;7.29;95.00;99786.13;4222251;27;20478;-73
2022/04/29 07:00:21;;;;;;;24.75;15.43;;;;;;;7.36;94.79;99791.13;4226113;27;20046;-73
2022/04/29 07:02:22;;;;;;;24.42;16.23;;;;;;;7.47;94.33;99784.16;4222177;28;20109;-73
2022/04/29 07:04:27;;;;;;;24.65;14.55;;;;;;;7.57;89.08;99792.88;4223152;27;20457;-73
2022/04/29 07:06:28;;;;;;;26.13;16.55;;;;;;;7.66;91.72;99781.03;4228335;27;20039;-73
2022/04/29 07:08:31;;;;;;;27.83;17.25;;;;;;;7.68;93.20;99785.09;4222199;28;20039;-73
2022/04/29 07:10:31;;;;;;;27.98;15.88;;;;;;;7.71;93.02;99781.69;4223097;27;20525;-73
2022/04/29 07:12:39;;;;;;;27.90;15.98;;;;;;;7.76;93.23;99780.69;4222228;27;20036;-73
2022/04/29 07:14:39;;;;;;;24.05;15.13;;;;;;;7.77;92.26;99771.28;4226944;27;20390;-73
2022/04/29 07:16:40;;;;;;;25.23;16.05;;;;;;;7.79;91.89;99774.53;4232779;27;20047;-73
2022/04/29 07:18:40;;;;;;;25.77;17.10;;;;;;;7.86;93.21;99775.66;4222399;28;20038;-73
2022/04/29 07:20:41;;;;;;;25.05;16.85;;;;;;;7.89;92.37;99763.97;4225547;27;20039;-73
2022/04/29 07:22:42;;;;;;;19.40;13.68;;;;;;;8.00;86.56;99771.88;4222320;28;20568;-73
2022/04/29 07:24:43;;;;;;;22.75;15.15;;;;;;;8.09;88.99;99758.88;4227752;27;20306;-72
2022/04/29 07:26:44;;;;;;;21.20;14.63;;;;;;;8.16;88.67;99765.50;4221279;27;20036;-73
2022/04/29 07:28:44;;;;;;;23.63;15.35;;;;;;;8.23;88.95;99764.16;4222422;27;20036;-73
2022/04/29 07:30:44;;;;;;;25.15;15.75;;;;;;;8.30;88.19;99768.03;4225966;27;20097;-73
2022/04/29 07:32:45;;;;;;;24.38;15.50;;;;;;;8.46;89.12;99775.78;4223017;27;20471;-73
2022/04/29 07:41:44;;;;;;;25.77;15.50;;;;;;;9.16;86.10;99754.84;4221634;28;20046;-73
2022/04/29 07:43:44;;;;;;;26.27;15.48;;;;;;;9.31;85.23;99748.72;4221745;28;20545;-73
2022/04/29 07:45:45;;;;;;;23.92;16.08;;;;;;;9.38;84.65;99746.22;4221789;28;20295;-73
2022/04/29 07:47:47;;;;;;;21.83;15.13;;;;;;;9.51;85.84;99750.63;4221266;28;20142;-73
2022/04/29 07:49:47;;;;;;;24.90;15.55;;;;;;;9.61;83.41;99746.66;4220411;28;20067;-73
2022/04/29 07:51:47;;;;;;;25.83;15.38;;;;;;;9.71;83.09;99742.63;4225595;27;20042;-73
2022/04/29 07:53:48;;;;;;;22.90;15.80;;;;;;;9.81;82.66;99737.47;4221747;28;20039;-73
2022/04/29 07:55:50;;;;;;;23.05;16.23;;;;;;;10.00;85.90;99741.66;4221822;27;20095;-73
2022/04/29 07:57:50;;;;;;;20.38;15.40;;;;;;;10.13;83.83;99746.84;4221855;27;20036;-73
2022/04/29 07:59:51;;;;;;;22.58;14.43;;;;;;;10.20;79.92;99748.25;4225370;27;20047;-73
2022/04/29 08:01:51;;;;;;;23.17;16.08;;;;;;;10.29;81.71;99746.22;4221756;27;20383;-72
2022/04/29 08:03:53;;;;;;;24.23;16.50;;;;;;;10.43;80.38;99754.19;4221325;28;20402;-73
2022/04/29 08:05:53;;;;;;;25.30;17.05;;;;;;;10.54;79.50;99741.47;4224657;27;20479;-73
2022/04/29 08:07:55;;;;;;;27.73;17.40;;;;;;;10.73;80.86;99741.69;4226240;27;20031;-73
2022/04/29 08:09:56;;;;;;;25.93;16.60;;;;;;;10.90;81.19;99735.88;4225171;27;20372;-73
2022/04/29 08:11:56;;;;;;;23.30;16.23;;;;;;;11.00;78.65;99731.81;4225509;27;20218;-73
2022/04/29 08:13:56;;;;;;;22.30;15.75;;;;;;;11.04;78.60;99738.28;4225477;27;20344;-73
2022/04/29 08:15:58;;;;;;;21.80;15.80;;;;;;;11.13;78.91;99729.81;4221343;27;20623;-73
2022/04/29 08:17:59;;;;;;;24.48;16.02;;;;;;;11.19;78.89;99729.22;4219885;27;20542;-73
2022/04/29 08:19:59;;;;;;;23.02;16.20;;;;;;;11.14;76.86;99732.22;4221822;27;20329;-73
2022/04/29 08:22:01;;;;;;;24.95;15.85;;;;;;;11.08;77.92;99730.84;4222507;27;20043;-73
2022/04/29 08:24:02;;;;;;;24.02;16.35;;;;;;;11.06;78.46;99729.59;4221288;27;20043;-73
2022/04/29 08:26:03;;;;;;;22.20;14.25;;;;;;;11.07;75.70;99723.72;4221479;28;20435;-73
2022/04/29 08:28:04;;;;;;;20.58;15.02;;;;;;;11.16;76.40;99737.41;4220690;27;20379;-73
2022/04/29 08:30:06;;;;;;;22.08;14.45;;;;;;;11.19;76.98;99732.00;4222640;27;20076;-73
2022/04/29 08:32:07;;;;;;;20.63;15.18;;;;;;;11.31;77.12;99728.34;4221019;28;20119;-73
2022/04/29 08:34:09;;;;;;;23.48;15.70;;;;;;;11.47;76.59;99720.91;4221194;27;20059;-73
2022/04/29 08:36:09;;;;;;;20.30;14.63;;;;;;;11.64;75.47;99717.00;4221193;28;20020;-73
2022/04/29 08:38:10;;;;;;;22.95;15.63;;;;;;;11.82;75.49;99720.28;4221990;27;20031;-73
2022/04/29 08:40:11;;;;;;;23.50;15.02;;;;;;;12.08;75.21;99715.03;4220803;28;20355;-73
2022/04/29 08:42:13;;;;;;;21.00;14.23;;;;;;;12.24;72.45;99717.78;4227819;27;20114;-73
2022/04/29 08:44:13;;;;;;;19.20;14.15;;;;;;;12.36;71.05;99714.91;4220919;28;20023;-73
2022/04/29 08:46:15;;;;;;;22.15;14.65;;;;;;;12.49;70.43;99714.78;4219973;28;20683;-73
2022/04/29 08:48:16;;;;;;;23.38;14.40;;;;;;;12.59;70.54;99717.03;4220038;28;20648;-73
2022/04/29 08:50:19;;;;;;;19.83;14.85;;;;;;;12.72;73.54;99712.16;4229074;27;20063;-73
2022/04/29 08:52:19;;;;;;;19.58;14.63;;;;;;;12.79;72.39;99702.00;4220519;28;20052;-73
2022/04/29 08:59:01;;;;;;;21.80;15.00;;;;;;;13.23;71.29;99701.78;4220825;27;20124;-73
2022/04/29 09:01:06;;;;;;;;;;;;;;;13.30;66.53;99701.91;4226421;27;20050;-73
2022/04/29 09:03:10;;;;;;;21.33;13.90;;;;;;;13.33;67.19;99692.88;4220191;28;20280;-73
2022/04/29 09:05:11;;;;;;;23.75;14.10;;;;;;;13.35;67.51;99698.06;4220662;27;20035;-73
2022/04/29 09:07:11;;;;;;;22.90;13.82;;;;;;;13.29;66.73;99697.53;4219895;28;20206;-73
2022/04/29 09:09:11;;;;;;;22.98;14.77;;;;;;;13.26;67.90;99694.69;4226948;27;20367;-73
2022/04/29 09:11:22;;;;;;;20.52;13.43;;;;;;;13.30;67.31;99698.34;4220574;27;20054;-73
2022/04/29 09:13:31;;;;;;;20.20;14.32;;;;;;;13.35;67.56;99698.06;4220506;28;20039;-73
2022/04/29 09:15:32;;;;;;;21.15;14.30;;;;;;;13.37;66.17;99699.28;4227254;27;20042;-73
2022/04/29 09:17:32;;;;;;;21.83;13.38;;;;;;;13.41;66.08;99696.59;4219464;28;20044;-73
2022/04/29 09:19:34;;;;;;;18.02;12.60;;;;;;;13.45;64.30;99698.25;4219391;28;20463;-73
2022/04/29 09:21:34;;;;;;;19.65;13.23;;;;;;;13.48;64.01;99700.28;4220375;27;20054;-73
2022/04/29 09:23:38;;;;;;;19.05;13.38;;;;;;;13.53;61.60;99690.06;4220353;27;20035;-73
2022/04/29 09:25:38;;;;;;;18.67;13.57;;;;;;;13.55;61.94;99682.13;4219928;27;20083;-73
2022/04/29 09:28:08;;;;;;;18.20;13.52;;;;;;;13.56;63.39;99686.53;4219777;28;20098;-74
2022/04/29 09:30:09;;;;;;;21.63;12.98;;;;;;;13.59;62.92;99686.59;4198099;28;20055;-74
2022/04/29 09:32:11;;;;;;;18.92;12.25;;;;;;;13.64;61.08;99686.28;4219622;28;20411;-73
2022/04/29 09:34:11;;;;;;;17.70;13.18;;;;;;;13.86;63.79;99687.47;4223005;27;20035;-73
2022/04/29 09:36:20;;;;;;;16.55;11.77;;;;;;;14.15;64.27;99686.00;4222771;27;20038;-74
2022/04/29 09:40:40;;;;;;;18.30;12.93;;;;;;;14.31;61.70;99688.59;4226409;27;20046;-74
2022/04/29 09:42:44;;;;;;;19.17;12.60;;;;;;;14.36;60.64;99688.31;4220118;28;20032;-74
2022/04/29 09:44:45;;;;;;;16.95;13.15;;;;;;;14.42;60.09;99680.44;4223923;27;20495;-74
2022/04/29 09:46:46;;;;;;;16.83;13.20;;;;;;;14.54;59.53;99680.25;4218830;28;20067;-74
2022/04/29 09:48:59;;;;;;;17.58;13.23;;;;;;;14.60;59.72;99682.34;4226892;27;20050;-74
2022/04/29 09:51:00;;;;;;;24.77;13.02;;;;;;;14.67;60.91;99678.06;4223811;27;20592;-74
2022/04/29 09:53:26;;;;;;;16.40;13.25;;;;;;;14.69;58.05;99679.28;4220470;28;20488;-74
2022/04/29 09:55:26;;;;;;;18.75;13.27;;;;;;;14.62;58.56;99673.59;4219360;28;20047;-73
2022/04/29 09:57:27;;;;;;;17.88;12.98;;;;;;;14.67;59.55;99667.72;4219217;28;20043;-73